sensor_id;sensor_type;location;lat;lon;timestamp;P1;durP1;ratioP1;P2;durP2;ratioP2
30874;SDS011;17581;43.222;27.924;2023-12-07T00:01:33;7.40;;;4.63;;
30874;SDS011;17581;43.222;27.924;2023-12-07T00:04:00;7.93;;;3.92;;
30874;SDS011;17581;43.222;27.924;2023-12-07T00:06:25;6.55;;;3.40;;
30874;SDS011;17581;43.222;27.924;2023-12-07T00:08:51;9.50;;;3.83;;
30874;SDS011;17581;43.222;27.924;2023-12-07T00:11:17;4.38;;;3.28;;
30874;SDS011;17581;43.222;27.924;2023-12-07T00:13:42;4.30;;;3.22;;
30874;SDS011;17581;43.222;27.924;2023-12-07T00:16:08;3.65;;;2.80;;
30874;SDS011;17581;43.222;27.924;2023-12-07T00:18:33;5.78;;;3.28;;
30874;SDS011;17581;43.222;27.924;2023-12-07T00:20:59;3.65;;;3.25;;
30874;SDS011;17581;43.222;27.924;2023-12-07T00:23:24;7.80;;;3.38;;
30874;SDS011;17581;43.222;27.924;2023-12-07T00:25:50;7.32;;;3.58;;
30874;SDS011;17581;43.222;27.924;2023-12-07T00:28:15;5.03;;;3.15;;
30874;SDS011;17581;43.222;27.924;2023-12-07T00:30:41;4.10;;;3.17;;
30874;SDS011;17581;43.222;27.924;2023-12-07T00:33:07;6.20;;;3.28;;
30874;SDS011;17581;43.222;27.924;2023-12-07T00:35:34;4.57;;;3.30;;
30874;SDS011;17581;43.222;27.924;2023-12-07T00:38:00;4.53;;;3.00;;
30874;SDS011;17581;43.222;27.924;2023-12-07T00:40:26;2.67;;;2.45;;
30874;SDS011;17581;43.222;27.924;2023-12-07T00:42:52;4.53;;;2.70;;
30874;SDS011;17581;43.222;27.924;2023-12-07T00:45:18;2.83;;;2.63;;
30874;SDS011;17581;43.222;27.924;2023-12-07T00:47:43;3.03;;;2.72;;
30874;SDS011;17581;43.222;27.924;2023-12-07T00:50:11;3.13;;;2.40;;
30874;SDS011;17581;43.222;27.924;2023-12-07T00:52:38;4.82;;;2.72;;
30874;SDS011;17581;43.222;27.924;2023-12-07T00:55:04;3.25;;;2.58;;
30874;SDS011;17581;43.222;27.924;2023-12-07T00:57:30;2.55;;;2.35;;
30874;SDS011;17581;43.222;27.924;2023-12-07T00:59:56;4.43;;;2.40;;
30874;SDS011;17581;43.222;27.924;2023-12-07T01:02:21;3.00;;;2.75;;
30874;SDS011;17581;43.222;27.924;2023-12-07T01:04:47;2.58;;;2.45;;
30874;SDS011;17581;43.222;27.924;2023-12-07T01:07:12;2.85;;;2.50;;
30874;SDS011;17581;43.222;27.924;2023-12-07T01:09:38;2.30;;;2.10;;
30874;SDS011;17581;43.222;27.924;2023-12-07T01:12:04;2.35;;;2.17;;
30874;SDS011;17581;43.222;27.924;2023-12-07T01:14:29;1.80;;;1.70;;
30874;SDS011;17581;43.222;27.924;2023-12-07T01:16:55;2.15;;;1.95;;
30874;SDS011;17581;43.222;27.924;2023-12-07T01:19:20;2.20;;;2.08;;
30874;SDS011;17581;43.222;27.924;2023-12-07T01:21:46;2.50;;;2.30;;
30874;SDS011;17581;43.222;27.924;2023-12-07T01:24:12;2.70;;;2.33;;
30874;SDS011;17581;43.222;27.924;2023-12-07T01:26:37;2.20;;;2.00;;
30874;SDS011;17581;43.222;27.924;2023-12-07T01:29:03;2.30;;;2.20;;
30874;SDS011;17581;43.222;27.924;2023-12-07T01:31:29;2.13;;;1.98;;
30874;SDS011;17581;43.222;27.924;2023-12-07T01:33:55;2.30;;;2.10;;
30874;SDS011;17581;43.222;27.924;2023-12-07T01:36:20;2.22;;;2.03;;
30874;SDS011;17581;43.222;27.924;2023-12-07T01:38:46;2.00;;;1.90;;
30874;SDS011;17581;43.222;27.924;2023-12-07T01:41:11;1.75;;;1.65;;
30874;SDS011;17581;43.222;27.924;2023-12-07T01:43:37;2.80;;;2.40;;
30874;SDS011;17581;43.222;27.924;2023-12-07T01:46:09;2.20;;;2.08;;
30874;SDS011;17581;43.222;27.924;2023-12-07T01:48:35;2.55;;;2.15;;
30874;SDS011;17581;43.222;27.924;2023-12-07T01:51:00;2.50;;;2.30;;
30874;SDS011;17581;43.222;27.924;2023-12-07T01:53:26;3.30;;;2.58;;
30874;SDS011;17581;43.222;27.924;2023-12-07T01:55:53;7.35;;;2.97;;
30874;SDS011;17581;43.222;27.924;2023-12-07T01:58:19;2.10;;;2.00;;
30874;SDS011;17581;43.222;27.924;2023-12-07T02:00:46;4.68;;;2.67;;
30874;SDS011;17581;43.222;27.924;2023-12-07T02:03:12;7.85;;;2.90;;
30874;SDS011;17581;43.222;27.924;2023-12-07T02:05:41;3.97;;;3.25;;
30874;SDS011;17581;43.222;27.924;2023-12-07T02:08:08;3.65;;;2.78;;
30874;SDS011;17581;43.222;27.924;2023-12-07T02:10:34;4.40;;;3.33;;
30874;SDS011;17581;43.222;27.924;2023-12-07T02:13:00;3.00;;;2.75;;
30874;SDS011;17581;43.222;27.924;2023-12-07T02:15:26;3.00;;;2.70;;
30874;SDS011;17581;43.222;27.924;2023-12-07T02:21:08;5.15;;;3.03;;
30874;SDS011;17581;43.222;27.924;2023-12-07T02:23:46;2.60;;;2.40;;
30874;SDS011;17581;43.222;27.924;2023-12-07T02:26:21;2.55;;;2.35;;
30874;SDS011;17581;43.222;27.924;2023-12-07T02:28:49;2.42;;;2.22;;
30874;SDS011;17581;43.222;27.924;2023-12-07T02:31:15;2.60;;;2.40;;
30874;SDS011;17581;43.222;27.924;2023-12-07T02:50:29;2.17;;;2.08;;
30874;SDS011;17581;43.222;27.924;2023-12-07T02:52:55;2.45;;;2.25;;
30874;SDS011;17581;43.222;27.924;2023-12-07T02:55:21;2.08;;;1.98;;
30874;SDS011;17581;43.222;27.924;2023-12-07T02:57:47;4.97;;;2.17;;
30874;SDS011;17581;43.222;27.924;2023-12-07T03:00:13;2.20;;;2.00;;
30874;SDS011;17581;43.222;27.924;2023-12-07T03:02:39;1.77;;;1.67;;
30874;SDS011;17581;43.222;27.924;2023-12-07T03:05:06;2.42;;;2.25;;
30874;SDS011;17581;43.222;27.924;2023-12-07T03:07:32;2.38;;;2.13;;
30874;SDS011;17581;43.222;27.924;2023-12-07T03:09:59;2.70;;;2.40;;
30874;SDS011;17581;43.222;27.924;2023-12-07T03:12:24;2.95;;;2.65;;
30874;SDS011;17581;43.222;27.924;2023-12-07T03:14:50;5.13;;;2.33;;
30874;SDS011;17581;43.222;27.924;2023-12-07T03:17:16;2.25;;;2.00;;
30874;SDS011;17581;43.222;27.924;2023-12-07T03:19:41;2.88;;;2.65;;
30874;SDS011;17581;43.222;27.924;2023-12-07T03:22:07;2.92;;;2.25;;
30874;SDS011;17581;43.222;27.924;2023-12-07T03:24:37;2.33;;;1.90;;
30874;SDS011;17581;43.222;27.924;2023-12-07T03:27:03;2.80;;;2.60;;
30874;SDS011;17581;43.222;27.924;2023-12-07T03:29:29;2.30;;;2.10;;
30874;SDS011;17581;43.222;27.924;2023-12-07T03:31:55;3.38;;;2.80;;
30874;SDS011;17581;43.222;27.924;2023-12-07T03:34:20;2.50;;;2.30;;
30874;SDS011;17581;43.222;27.924;2023-12-07T03:36:46;2.20;;;2.08;;
30874;SDS011;17581;43.222;27.924;2023-12-07T03:39:16;2.10;;;2.00;;
30874;SDS011;17581;43.222;27.924;2023-12-07T03:41:47;2.50;;;2.30;;
30874;SDS011;17581;43.222;27.924;2023-12-07T03:44:13;2.17;;;2.08;;
30874;SDS011;17581;43.222;27.924;2023-12-07T03:46:39;2.35;;;2.15;;
30874;SDS011;17581;43.222;27.924;2023-12-07T03:49:05;2.60;;;2.40;;
30874;SDS011;17581;43.222;27.924;2023-12-07T03:51:31;2.70;;;2.50;;
30874;SDS011;17581;43.222;27.924;2023-12-07T03:53:57;2.78;;;2.58;;
30874;SDS011;17581;43.222;27.924;2023-12-07T03:56:26;2.78;;;2.50;;
30874;SDS011;17581;43.222;27.924;2023-12-07T03:58:53;3.25;;;2.05;;
30874;SDS011;17581;43.222;27.924;2023-12-07T04:01:26;2.80;;;2.60;;
30874;SDS011;17581;43.222;27.924;2023-12-07T04:03:53;3.17;;;2.90;;
30874;SDS011;17581;43.222;27.924;2023-12-07T04:06:20;3.45;;;3.10;;
30874;SDS011;17581;43.222;27.924;2023-12-07T04:08:48;4.00;;;3.70;;
30874;SDS011;17581;43.222;27.924;2023-12-07T04:11:14;3.45;;;3.15;;
30874;SDS011;17581;43.222;27.924;2023-12-07T04:13:40;4.78;;;3.45;;
30874;SDS011;17581;43.222;27.924;2023-12-07T04:16:07;3.72;;;3.40;;
30874;SDS011;17581;43.222;27.924;2023-12-07T04:18:36;2.60;;;2.40;;
30874;SDS011;17581;43.222;27.924;2023-12-07T04:21:02;2.35;;;2.20;;
30874;SDS011;17581;43.222;27.924;2023-12-07T04:23:28;3.42;;;3.13;;
30874;SDS011;17581;43.222;27.924;2023-12-07T04:25:53;3.42;;;3.13;;
30874;SDS011;17581;43.222;27.924;2023-12-07T04:28:19;2.90;;;2.65;;
30874;SDS011;17581;43.222;27.924;2023-12-07T04:30:45;2.65;;;2.45;;
30874;SDS011;17581;43.222;27.924;2023-12-07T04:33:10;2.70;;;2.50;;
30874;SDS011;17581;43.222;27.924;2023-12-07T04:35:36;12.25;;;6.63;;
30874;SDS011;17581;43.222;27.924;2023-12-07T04:38:01;7.20;;;5.85;;
30874;SDS011;17581;43.222;27.924;2023-12-07T04:40:27;3.58;;;3.28;;
30874;SDS011;17581;43.222;27.924;2023-12-07T04:42:52;4.05;;;2.60;;
30874;SDS011;17581;43.222;27.924;2023-12-07T04:45:18;4.28;;;2.92;;
30874;SDS011;17581;43.222;27.924;2023-12-07T04:47:43;3.35;;;3.05;;
30874;SDS011;17581;43.222;27.924;2023-12-07T04:50:10;5.85;;;3.38;;
30874;SDS011;17581;43.222;27.924;2023-12-07T04:52:35;12.55;;;6.88;;
30874;SDS011;17581;43.222;27.924;2023-12-07T04:55:01;20.90;;;9.93;;
30874;SDS011;17581;43.222;27.924;2023-12-07T04:57:27;11.55;;;5.78;;
30874;SDS011;17581;43.222;27.924;2023-12-07T04:59:52;10.90;;;7.05;;
30874;SDS011;17581;43.222;27.924;2023-12-07T05:02:18;3.35;;;3.00;;
30874;SDS011;17581;43.222;27.924;2023-12-07T05:04:44;6.95;;;3.92;;
30874;SDS011;17581;43.222;27.924;2023-12-07T05:07:10;5.13;;;4.32;;
30874;SDS011;17581;43.222;27.924;2023-12-07T05:09:36;9.02;;;4.53;;
30874;SDS011;17581;43.222;27.924;2023-12-07T05:12:03;8.90;;;5.82;;
30874;SDS011;17581;43.222;27.924;2023-12-07T05:14:30;4.25;;;3.70;;
30874;SDS011;17581;43.222;27.924;2023-12-07T05:16:56;6.45;;;4.22;;
30874;SDS011;17581;43.222;27.924;2023-12-07T05:19:25;12.38;;;6.20;;
30874;SDS011;17581;43.222;27.924;2023-12-07T05:21:50;14.25;;;6.07;;
30874;SDS011;17581;43.222;27.924;2023-12-07T05:24:16;9.52;;;5.78;;
30874;SDS011;17581;43.222;27.924;2023-12-07T05:26:43;4.20;;;3.63;;
30874;SDS011;17581;43.222;27.924;2023-12-07T05:29:11;4.85;;;4.38;;
30874;SDS011;17581;43.222;27.924;2023-12-07T05:31:36;7.60;;;4.70;;
30874;SDS011;17581;43.222;27.924;2023-12-07T05:34:02;17.05;;;7.43;;
30874;SDS011;17581;43.222;27.924;2023-12-07T05:36:28;6.07;;;5.15;;
30874;SDS011;17581;43.222;27.924;2023-12-07T05:38:54;4.28;;;3.92;;
30874;SDS011;17581;43.222;27.924;2023-12-07T05:41:20;6.45;;;4.68;;
30874;SDS011;17581;43.222;27.924;2023-12-07T05:43:45;9.07;;;6.25;;
30874;SDS011;17581;43.222;27.924;2023-12-07T05:46:11;14.68;;;8.57;;
30874;SDS011;17581;43.222;27.924;2023-12-07T05:48:36;8.38;;;5.47;;
30874;SDS011;17581;43.222;27.924;2023-12-07T05:51:02;5.32;;;4.85;;
30874;SDS011;17581;43.222;27.924;2023-12-07T05:53:28;5.68;;;5.18;;
30874;SDS011;17581;43.222;27.924;2023-12-07T05:55:54;5.35;;;4.85;;
30874;SDS011;17581;43.222;27.924;2023-12-07T05:58:20;11.93;;;6.68;;
30874;SDS011;17581;43.222;27.924;2023-12-07T06:00:45;5.07;;;4.65;;
30874;SDS011;17581;43.222;27.924;2023-12-07T06:03:15;6.43;;;4.88;;
30874;SDS011;17581;43.222;27.924;2023-12-07T06:05:40;6.15;;;4.65;;
30874;SDS011;17581;43.222;27.924;2023-12-07T06:08:06;6.18;;;5.28;;
30874;SDS011;17581;43.222;27.924;2023-12-07T06:10:32;12.38;;;6.47;;
30874;SDS011;17581;43.222;27.924;2023-12-07T06:12:58;6.07;;;5.03;;
30874;SDS011;17581;43.222;27.924;2023-12-07T06:15:26;7.32;;;6.10;;
30874;SDS011;17581;43.222;27.924;2023-12-07T06:17:52;6.32;;;5.40;;
30874;SDS011;17581;43.222;27.924;2023-12-07T06:20:18;7.32;;;6.03;;
30874;SDS011;17581;43.222;27.924;2023-12-07T06:22:43;9.48;;;6.40;;
30874;SDS011;17581;43.222;27.924;2023-12-07T06:25:09;6.85;;;6.15;;
30874;SDS011;17581;43.222;27.924;2023-12-07T06:27:35;11.35;;;6.82;;
30874;SDS011;17581;43.222;27.924;2023-12-07T06:30:01;9.27;;;6.47;;
30874;SDS011;17581;43.222;27.924;2023-12-07T06:32:26;8.40;;;6.72;;
30874;SDS011;17581;43.222;27.924;2023-12-07T06:34:52;16.58;;;7.45;;
30874;SDS011;17581;43.222;27.924;2023-12-07T06:37:18;10.13;;;7.22;;
30874;SDS011;17581;43.222;27.924;2023-12-07T06:39:45;12.15;;;7.22;;
30874;SDS011;17581;43.222;27.924;2023-12-07T06:42:11;9.30;;;6.55;;
30874;SDS011;17581;43.222;27.924;2023-12-07T06:44:36;12.45;;;6.90;;
30874;SDS011;17581;43.222;27.924;2023-12-07T06:47:02;15.18;;;8.23;;
30874;SDS011;17581;43.222;27.924;2023-12-07T06:49:30;11.30;;;7.43;;
30874;SDS011;17581;43.222;27.924;2023-12-07T06:51:55;12.98;;;6.45;;
30874;SDS011;17581;43.222;27.924;2023-12-07T06:54:21;7.28;;;5.85;;
30874;SDS011;17581;43.222;27.924;2023-12-07T06:56:47;7.78;;;6.20;;
30874;SDS011;17581;43.222;27.924;2023-12-07T06:59:12;12.45;;;7.75;;
30874;SDS011;17581;43.222;27.924;2023-12-07T07:01:38;12.45;;;7.38;;
30874;SDS011;17581;43.222;27.924;2023-12-07T07:04:04;8.07;;;6.18;;
30874;SDS011;17581;43.222;27.924;2023-12-07T07:06:29;7.40;;;5.40;;
30874;SDS011;17581;43.222;27.924;2023-12-07T07:08:55;12.52;;;5.93;;
30874;SDS011;17581;43.222;27.924;2023-12-07T07:11:20;15.15;;;6.93;;
30874;SDS011;17581;43.222;27.924;2023-12-07T07:13:46;7.30;;;5.50;;
30874;SDS011;17581;43.222;27.924;2023-12-07T07:16:11;13.77;;;7.55;;
30874;SDS011;17581;43.222;27.924;2023-12-07T07:18:37;9.15;;;5.18;;
30874;SDS011;17581;43.222;27.924;2023-12-07T07:21:03;8.02;;;6.00;;
30874;SDS011;17581;43.222;27.924;2023-12-07T07:23:29;12.82;;;7.13;;
30874;SDS011;17581;43.222;27.924;2023-12-07T07:25:55;13.68;;;6.72;;
30874;SDS011;17581;43.222;27.924;2023-12-07T07:28:20;14.70;;;6.40;;
30874;SDS011;17581;43.222;27.924;2023-12-07T07:30:46;16.48;;;8.20;;
30874;SDS011;17581;43.222;27.924;2023-12-07T07:33:12;20.02;;;9.25;;
30874;SDS011;17581;43.222;27.924;2023-12-07T07:35:37;28.17;;;11.27;;
30874;SDS011;17581;43.222;27.924;2023-12-07T07:38:03;14.80;;;9.95;;
30874;SDS011;17581;43.222;27.924;2023-12-07T07:40:28;19.70;;;10.95;;
30874;SDS011;17581;43.222;27.924;2023-12-07T07:42:54;14.40;;;7.15;;
30874;SDS011;17581;43.222;27.924;2023-12-07T07:45:19;11.50;;;6.97;;
30874;SDS011;17581;43.222;27.924;2023-12-07T07:47:45;12.40;;;8.52;;
30874;SDS011;17581;43.222;27.924;2023-12-07T07:50:10;12.88;;;8.35;;
30874;SDS011;17581;43.222;27.924;2023-12-07T07:52:36;9.07;;;6.50;;
30874;SDS011;17581;43.222;27.924;2023-12-07T07:55:03;19.15;;;7.88;;
30874;SDS011;17581;43.222;27.924;2023-12-07T07:57:29;16.17;;;9.30;;
30874;SDS011;17581;43.222;27.924;2023-12-07T07:59:55;9.23;;;6.78;;
30874;SDS011;17581;43.222;27.924;2023-12-07T08:02:22;9.05;;;6.22;;
30874;SDS011;17581;43.222;27.924;2023-12-07T08:04:47;8.18;;;5.53;;
30874;SDS011;17581;43.222;27.924;2023-12-07T08:07:13;5.65;;;5.07;;
30874;SDS011;17581;43.222;27.924;2023-12-07T08:09:38;7.72;;;4.85;;
30874;SDS011;17581;43.222;27.924;2023-12-07T08:12:05;9.50;;;5.80;;
30874;SDS011;17581;43.222;27.924;2023-12-07T08:14:31;11.55;;;5.88;;
30874;SDS011;17581;43.222;27.924;2023-12-07T08:16:57;8.10;;;5.47;;
30874;SDS011;17581;43.222;27.924;2023-12-07T08:19:23;8.82;;;4.75;;
30874;SDS011;17581;43.222;27.924;2023-12-07T08:21:50;5.45;;;4.60;;
30874;SDS011;17581;43.222;27.924;2023-12-07T08:24:16;7.57;;;5.05;;
30874;SDS011;17581;43.222;27.924;2023-12-07T08:26:41;10.50;;;5.38;;
30874;SDS011;17581;43.222;27.924;2023-12-07T08:29:07;5.32;;;4.60;;
30874;SDS011;17581;43.222;27.924;2023-12-07T08:31:32;6.10;;;4.55;;
30874;SDS011;17581;43.222;27.924;2023-12-07T08:33:58;7.43;;;5.05;;
30874;SDS011;17581;43.222;27.924;2023-12-07T08:36:23;12.43;;;5.03;;
30874;SDS011;17581;43.222;27.924;2023-12-07T08:38:49;10.23;;;6.57;;
30874;SDS011;17581;43.222;27.924;2023-12-07T08:41:14;6.97;;;5.15;;
30874;SDS011;17581;43.222;27.924;2023-12-07T08:43:40;6.13;;;5.00;;
30874;SDS011;17581;43.222;27.924;2023-12-07T08:46:05;7.88;;;5.35;;
30874;SDS011;17581;43.222;27.924;2023-12-07T08:48:32;12.27;;;5.50;;
30874;SDS011;17581;43.222;27.924;2023-12-07T08:50:59;7.90;;;4.65;;
30874;SDS011;17581;43.222;27.924;2023-12-07T08:53:24;9.05;;;6.15;;
30874;SDS011;17581;43.222;27.924;2023-12-07T08:55:51;7.53;;;5.68;;
30874;SDS011;17581;43.222;27.924;2023-12-07T08:58:18;4.35;;;3.63;;
30874;SDS011;17581;43.222;27.924;2023-12-07T09:00:43;4.60;;;4.15;;
30874;SDS011;17581;43.222;27.924;2023-12-07T09:03:09;5.63;;;3.85;;
30874;SDS011;17581;43.222;27.924;2023-12-07T09:05:35;5.75;;;3.92;;
30874;SDS011;17581;43.222;27.924;2023-12-07T09:08:00;4.72;;;3.83;;
30874;SDS011;17581;43.222;27.924;2023-12-07T09:10:26;5.25;;;3.97;;
30874;SDS011;17581;43.222;27.924;2023-12-07T09:12:53;7.03;;;4.70;;
30874;SDS011;17581;43.222;27.924;2023-12-07T09:15:18;17.55;;;8.43;;
30874;SDS011;17581;43.222;27.924;2023-12-07T09:17:44;7.25;;;5.18;;
30874;SDS011;17581;43.222;27.924;2023-12-07T09:20:09;6.30;;;4.45;;
30874;SDS011;17581;43.222;27.924;2023-12-07T09:22:42;7.07;;;5.28;;
30874;SDS011;17581;43.222;27.924;2023-12-07T09:25:09;5.47;;;4.63;;
30874;SDS011;17581;43.222;27.924;2023-12-07T09:27:35;6.28;;;4.40;;
30874;SDS011;17581;43.222;27.924;2023-12-07T09:30:04;8.80;;;6.53;;
30874;SDS011;17581;43.222;27.924;2023-12-07T09:32:35;17.02;;;5.95;;
30874;SDS011;17581;43.222;27.924;2023-12-07T09:35:06;9.27;;;5.20;;
30874;SDS011;17581;43.222;27.924;2023-12-07T09:37:35;12.70;;;7.72;;
30874;SDS011;17581;43.222;27.924;2023-12-07T09:40:01;10.02;;;6.38;;
30874;SDS011;17581;43.222;27.924;2023-12-07T09:42:29;5.85;;;4.63;;
30874;SDS011;17581;43.222;27.924;2023-12-07T09:44:54;12.50;;;5.25;;
30874;SDS011;17581;43.222;27.924;2023-12-07T09:47:20;7.55;;;5.90;;
30874;SDS011;17581;43.222;27.924;2023-12-07T09:49:46;13.57;;;5.88;;
30874;SDS011;17581;43.222;27.924;2023-12-07T09:52:11;10.52;;;5.10;;
30874;SDS011;17581;43.222;27.924;2023-12-07T09:54:41;10.18;;;5.63;;
30874;SDS011;17581;43.222;27.924;2023-12-07T09:57:08;20.33;;;7.47;;
30874;SDS011;17581;43.222;27.924;2023-12-07T09:59:37;14.55;;;7.93;;
30874;SDS011;17581;43.222;27.924;2023-12-07T10:02:04;7.60;;;4.47;;
30874;SDS011;17581;43.222;27.924;2023-12-07T10:04:32;11.60;;;6.65;;
30874;SDS011;17581;43.222;27.924;2023-12-07T10:06:58;12.15;;;4.55;;
30874;SDS011;17581;43.222;27.924;2023-12-07T10:09:23;11.73;;;6.05;;
30874;SDS011;17581;43.222;27.924;2023-12-07T10:11:49;6.60;;;4.25;;
30874;SDS011;17581;43.222;27.924;2023-12-07T10:14:14;8.98;;;4.68;;
30874;SDS011;17581;43.222;27.924;2023-12-07T10:17:01;11.00;;;4.85;;
30874;SDS011;17581;43.222;27.924;2023-12-07T10:19:26;6.72;;;5.13;;
30874;SDS011;17581;43.222;27.924;2023-12-07T10:21:52;9.10;;;4.63;;
30874;SDS011;17581;43.222;27.924;2023-12-07T10:24:22;4.93;;;4.28;;
30874;SDS011;17581;43.222;27.924;2023-12-07T10:26:50;8.82;;;4.53;;
30874;SDS011;17581;43.222;27.924;2023-12-07T10:29:19;5.32;;;4.03;;
30874;SDS011;17581;43.222;27.924;2023-12-07T10:31:45;8.30;;;4.60;;
30874;SDS011;17581;43.222;27.924;2023-12-07T10:34:12;5.72;;;4.60;;
30874;SDS011;17581;43.222;27.924;2023-12-07T10:36:38;9.10;;;4.43;;
30874;SDS011;17581;43.222;27.924;2023-12-07T10:39:03;6.55;;;5.07;;
30874;SDS011;17581;43.222;27.924;2023-12-07T10:41:33;6.15;;;5.07;;
30874;SDS011;17581;43.222;27.924;2023-12-07T10:44:00;7.40;;;5.63;;
30874;SDS011;17581;43.222;27.924;2023-12-07T10:46:27;10.45;;;5.72;;
30874;SDS011;17581;43.222;27.924;2023-12-07T10:48:59;4.80;;;4.30;;
30874;SDS011;17581;43.222;27.924;2023-12-07T10:51:41;12.85;;;5.88;;
30874;SDS011;17581;43.222;27.924;2023-12-07T10:54:10;9.48;;;5.55;;
30874;SDS011;17581;43.222;27.924;2023-12-07T10:56:44;8.30;;;6.18;;
30874;SDS011;17581;43.222;27.924;2023-12-07T10:59:11;7.95;;;5.90;;
30874;SDS011;17581;43.222;27.924;2023-12-07T11:01:41;7.78;;;5.75;;
30874;SDS011;17581;43.222;27.924;2023-12-07T11:04:07;10.85;;;5.47;;
30874;SDS011;17581;43.222;27.924;2023-12-07T11:06:42;17.02;;;9.65;;
30874;SDS011;17581;43.222;27.924;2023-12-07T11:09:23;12.55;;;7.53;;
30874;SDS011;17581;43.222;27.924;2023-12-07T11:14:27;7.20;;;5.95;;
30874;SDS011;17581;43.222;27.924;2023-12-07T11:16:54;10.35;;;7.55;;
30874;SDS011;17581;43.222;27.924;2023-12-07T11:22:04;11.35;;;8.10;;
30874;SDS011;17581;43.222;27.924;2023-12-07T11:24:31;10.05;;;8.18;;
30874;SDS011;17581;43.222;27.924;2023-12-07T11:26:57;11.52;;;8.70;;
30874;SDS011;17581;43.222;27.924;2023-12-07T11:29:26;12.77;;;10.05;;
30874;SDS011;17581;43.222;27.924;2023-12-07T11:31:58;14.52;;;9.02;;
30874;SDS011;17581;43.222;27.924;2023-12-07T11:34:36;9.57;;;7.38;;
30874;SDS011;17581;43.222;27.924;2023-12-07T11:37:03;14.45;;;9.48;;
30874;SDS011;17581;43.222;27.924;2023-12-07T11:39:29;13.68;;;8.80;;
30874;SDS011;17581;43.222;27.924;2023-12-07T11:41:55;14.70;;;9.48;;
30874;SDS011;17581;43.222;27.924;2023-12-07T11:44:36;17.40;;;11.52;;
30874;SDS011;17581;43.222;27.924;2023-12-07T11:47:03;31.58;;;13.05;;
30874;SDS011;17581;43.222;27.924;2023-12-07T11:49:30;17.48;;;10.18;;
30874;SDS011;17581;43.222;27.924;2023-12-07T11:51:56;16.45;;;10.10;;
30874;SDS011;17581;43.222;27.924;2023-12-07T11:54:28;14.73;;;9.90;;
30874;SDS011;17581;43.222;27.924;2023-12-07T11:56:56;17.30;;;9.80;;
30874;SDS011;17581;43.222;27.924;2023-12-07T11:59:22;15.07;;;9.70;;
30874;SDS011;17581;43.222;27.924;2023-12-07T12:01:51;12.88;;;9.30;;
30874;SDS011;17581;43.222;27.924;2023-12-07T12:04:16;15.65;;;10.50;;
30874;SDS011;17581;43.222;27.924;2023-12-07T12:06:45;11.68;;;8.77;;
30874;SDS011;17581;43.222;27.924;2023-12-07T12:09:14;15.00;;;9.32;;
30874;SDS011;17581;43.222;27.924;2023-12-07T12:11:46;18.52;;;11.77;;
30874;SDS011;17581;43.222;27.924;2023-12-07T12:14:13;11.30;;;9.00;;
30874;SDS011;17581;43.222;27.924;2023-12-07T12:16:39;15.88;;;10.43;;
30874;SDS011;17581;43.222;27.924;2023-12-07T12:19:05;16.20;;;9.18;;
30874;SDS011;17581;43.222;27.924;2023-12-07T12:21:33;13.35;;;8.10;;
30874;SDS011;17581;43.222;27.924;2023-12-07T12:24:00;10.43;;;8.88;;
30874;SDS011;17581;43.222;27.924;2023-12-07T12:26:25;10.05;;;8.25;;
30874;SDS011;17581;43.222;27.924;2023-12-07T12:28:51;14.13;;;8.38;;
30874;SDS011;17581;43.222;27.924;2023-12-07T12:31:17;9.52;;;7.00;;
30874;SDS011;17581;43.222;27.924;2023-12-07T12:33:43;9.32;;;7.30;;
30874;SDS011;17581;43.222;27.924;2023-12-07T12:36:09;11.77;;;8.25;;
30874;SDS011;17581;43.222;27.924;2023-12-07T12:38:37;11.90;;;8.27;;
30874;SDS011;17581;43.222;27.924;2023-12-07T12:41:04;10.18;;;8.55;;
30874;SDS011;17581;43.222;27.924;2023-12-07T12:43:31;10.40;;;7.70;;
30874;SDS011;17581;43.222;27.924;2023-12-07T12:45:57;13.73;;;7.45;;
30874;SDS011;17581;43.222;27.924;2023-12-07T12:48:23;11.20;;;7.25;;
30874;SDS011;17581;43.222;27.924;2023-12-07T12:50:48;15.40;;;8.35;;
30874;SDS011;17581;43.222;27.924;2023-12-07T12:53:14;10.13;;;7.25;;
30874;SDS011;17581;43.222;27.924;2023-12-07T12:55:40;10.82;;;6.97;;
30874;SDS011;17581;43.222;27.924;2023-12-07T12:58:07;19.52;;;8.75;;
30874;SDS011;17581;43.222;27.924;2023-12-07T13:00:34;11.60;;;7.32;;
30874;SDS011;17581;43.222;27.924;2023-12-07T13:03:03;9.68;;;7.57;;
30874;SDS011;17581;43.222;27.924;2023-12-07T13:05:29;13.68;;;8.75;;
30874;SDS011;17581;43.222;27.924;2023-12-07T13:07:55;10.65;;;6.72;;
30874;SDS011;17581;43.222;27.924;2023-12-07T13:10:20;11.45;;;8.00;;
30874;SDS011;17581;43.222;27.924;2023-12-07T13:12:46;12.60;;;8.05;;
30874;SDS011;17581;43.222;27.924;2023-12-07T13:15:12;9.88;;;7.78;;
30874;SDS011;17581;43.222;27.924;2023-12-07T13:17:39;12.73;;;7.60;;
30874;SDS011;17581;43.222;27.924;2023-12-07T13:20:06;10.45;;;8.13;;
30874;SDS011;17581;43.222;27.924;2023-12-07T13:22:39;10.60;;;5.90;;
30874;SDS011;17581;43.222;27.924;2023-12-07T13:25:08;8.23;;;6.63;;
30874;SDS011;17581;43.222;27.924;2023-12-07T13:27:34;12.48;;;8.82;;
30874;SDS011;17581;43.222;27.924;2023-12-07T13:30:00;6.70;;;5.97;;
30874;SDS011;17581;43.222;27.924;2023-12-07T13:32:30;7.82;;;5.85;;
30874;SDS011;17581;43.222;27.924;2023-12-07T13:34:56;14.10;;;8.18;;
30874;SDS011;17581;43.222;27.924;2023-12-07T13:37:21;8.88;;;5.63;;
30874;SDS011;17581;43.222;27.924;2023-12-07T13:39:47;9.10;;;5.75;;
30874;SDS011;17581;43.222;27.924;2023-12-07T13:42:18;8.35;;;6.78;;
30874;SDS011;17581;43.222;27.924;2023-12-07T13:44:43;7.40;;;5.82;;
30874;SDS011;17581;43.222;27.924;2023-12-07T13:47:09;9.85;;;5.43;;
30874;SDS011;17581;43.222;27.924;2023-12-07T13:49:35;8.32;;;5.90;;
30874;SDS011;17581;43.222;27.924;2023-12-07T13:52:02;7.47;;;5.47;;
30874;SDS011;17581;43.222;27.924;2023-12-07T13:54:27;16.30;;;10.43;;
30874;SDS011;17581;43.222;27.924;2023-12-07T13:56:53;6.53;;;5.65;;
30874;SDS011;17581;43.222;27.924;2023-12-07T13:59:18;6.18;;;5.57;;
30874;SDS011;17581;43.222;27.924;2023-12-07T14:01:44;7.95;;;5.88;;
30874;SDS011;17581;43.222;27.924;2023-12-07T14:04:09;6.05;;;5.40;;
30874;SDS011;17581;43.222;27.924;2023-12-07T14:06:35;5.07;;;4.53;;
30874;SDS011;17581;43.222;27.924;2023-12-07T14:09:01;8.02;;;4.97;;
30874;SDS011;17581;43.222;27.924;2023-12-07T14:11:28;7.25;;;5.03;;
30874;SDS011;17581;43.222;27.924;2023-12-07T14:13:53;8.65;;;6.30;;
30874;SDS011;17581;43.222;27.924;2023-12-07T14:16:20;9.70;;;5.40;;
30874;SDS011;17581;43.222;27.924;2023-12-07T14:18:46;9.15;;;6.72;;
30874;SDS011;17581;43.222;27.924;2023-12-07T14:21:11;9.70;;;5.53;;
30874;SDS011;17581;43.222;27.924;2023-12-07T14:23:39;12.73;;;7.13;;
30874;SDS011;17581;43.222;27.924;2023-12-07T14:26:05;7.65;;;6.22;;
30874;SDS011;17581;43.222;27.924;2023-12-07T14:28:30;9.13;;;6.63;;
30874;SDS011;17581;43.222;27.924;2023-12-07T14:30:59;6.95;;;5.43;;
30874;SDS011;17581;43.222;27.924;2023-12-07T14:33:25;10.57;;;6.88;;
30874;SDS011;17581;43.222;27.924;2023-12-07T14:35:50;10.90;;;7.25;;
30874;SDS011;17581;43.222;27.924;2023-12-07T14:38:16;10.68;;;6.80;;
30874;SDS011;17581;43.222;27.924;2023-12-07T14:40:41;8.35;;;5.68;;
30874;SDS011;17581;43.222;27.924;2023-12-07T14:43:07;6.53;;;5.28;;
30874;SDS011;17581;43.222;27.924;2023-12-07T14:45:32;7.68;;;5.55;;
30874;SDS011;17581;43.222;27.924;2023-12-07T14:47:58;7.95;;;5.55;;
30874;SDS011;17581;43.222;27.924;2023-12-07T14:50:23;10.40;;;6.63;;
30874;SDS011;17581;43.222;27.924;2023-12-07T14:52:49;6.72;;;6.03;;